CheckWX is a tool to help pilots better visualize weather data.  It is not intended as a substitute for an official pre-flight weather briefing.

16:09:37 UTC

ENBN METAR
Brønnøysund Airport
Brønnøy, Norway
Current

50 mins ago

ENBN 181520Z 03006KT 5000 -RADZ FEW002 SCT005 BKN010 06/05 Q1003
Observed
Oct-18 @ 15:20 UTC
Wind
  • 030° at 6 KTS
Visibility
5,000 meters
Flight Rules
MVFR
Conditions
Light Rain, Light Drizzle
Cloud Levels
  • Few at 200' AGL
  • Scattered at 500' AGL
  • Broken at 1,000' AGL
Temperature
C / 43°F
Dewpoint
C / 41°F
Humidity
93%
Altimeter
29.62" Hg
Pressure
1002.92 hPa
Previous

1 hour ago

ENBN 181450Z 02006KT 5000 -DZRA FEW006 BKN015 06/05 Q1003
Observed
Oct-18 @ 14:50 UTC
Wind
  • 020° at 6 KTS
Visibility
5,000 meters
Flight Rules
MVFR
Conditions
Light Drizzle, Light Rain
Cloud Levels
  • Few at 600' AGL
  • Broken at 1,500' AGL
Temperature
C / 43°F
Dewpoint
C / 41°F
Humidity
93%
Altimeter
29.62" Hg
Pressure
1002.92 hPa
Previous

2 hours ago

ENBN 181420Z 03005KT 5000 -RADZ FEW006 BKN013 06/05 Q1003
Observed
Oct-18 @ 14:20 UTC
Wind
  • 030° at 5 KTS
Visibility
5,000 meters
Flight Rules
MVFR
Conditions
Light Rain, Light Drizzle
Cloud Levels
  • Few at 600' AGL
  • Broken at 1,300' AGL
Temperature
C / 43°F
Dewpoint
C / 41°F
Humidity
93%
Altimeter
29.62" Hg
Pressure
1002.92 hPa